Time;durP1;ratioP1;P1;durP2;ratioP2;P2;SDS_P1;SDS_P2;PMS_P1;PMS_P2;Temp;Humidity;BMP_temperature;BMP_pressure;BME280_temperature;BME280_humidity;BME280_pressure;Samples;Min_cycle;Max_cycle;Signal;HPM_P1;HPM_P2
2022/05/12 00:00:09;;;;;;;4.53;3.47;;;;;;;;;;4950629;28;20540;-63
2022/05/12 00:02:35;;;;;;;;;;;;;;;;;;4951167;28;20341;-63
2022/05/12 00:05:00;;;;;;;5.03;3.10;;;;;;;;;;4951178;28;20252;-67
2022/05/12 00:07:25;;;;;;;3.75;3.03;;;;;;;;;;4950701;28;20132;-64
2022/05/12 00:09:51;;;;;;;4.18;3.20;;;;;;;;;;4951853;28;20525;-63
2022/05/12 00:12:17;;;;;;;6.90;3.17;;;;;;;;;;4949985;28;20429;-63
2022/05/12 00:14:42;;;;;;;4.85;3.35;;;;;;;;;;4950370;28;20456;-63
2022/05/12 00:17:07;;;;;;;4.30;3.53;;;;;;;;;;4951312;28;20405;-63
2022/05/12 00:19:33;;;;;;;4.88;3.17;;;;;;;;;;4950358;28;20460;-62
2022/05/12 00:21:58;;;;;;;4.03;3.50;;;;;;;;;;4950488;28;20497;-63
2022/05/12 00:24:24;;;;;;;3.78;3.08;;;;;;;;;;4951159;28;20512;-63
2022/05/12 00:26:49;;;;;;;4.88;3.72;;;;;;;;;;4950243;28;20022;-63
2022/05/12 00:29:15;;;;;;;5.53;3.33;;;;;;;;;;4950181;28;20448;-63
2022/05/12 00:31:42;;;;;;;4.78;3.40;;;;;;;;;;4951364;28;20342;-63
2022/05/12 00:34:09;;;;;;;5.63;3.72;;;;;;;;;;4950230;28;20529;-63
2022/05/12 00:36:35;;;;;;;6.13;3.45;;;;;;;;;;4950276;28;20377;-62
2022/05/12 00:39:01;;;;;;;5.35;3.25;;;;;;;;;;4950060;28;20327;-63
2022/05/12 00:41:26;;;;;;;4.97;3.53;;;;;;;;;;4949966;28;20299;-63
2022/05/12 00:43:55;;;;;;;7.63;3.25;;;;;;;;;;4949781;28;20144;-63
2022/05/12 00:46:26;;;;;;;4.82;3.42;;;;;;;;;;4950815;28;20437;-63
2022/05/12 00:48:53;;;;;;;5.25;3.20;;;;;;;;;;4949712;28;20479;-63
2022/05/12 00:51:27;;;;;;;4.80;3.50;;;;;;;;;;4949865;28;20456;-64
2022/05/12 00:53:54;;;;;;;5.13;3.10;;;;;;;;;;4949917;28;20333;-63
2022/05/12 00:56:21;;;;;;;5.10;3.65;;;;;;;;;;4932300;28;20337;-62
2022/05/12 00:58:49;;;;;;;5.40;3.22;;;;;;;;;;4932586;28;20030;-62
2022/05/12 01:01:15;;;;;;;4.25;3.10;;;;;;;;;;4930030;28;20033;-63
2022/05/12 01:03:42;;;;;;;4.00;3.15;;;;;;;;;;4949581;28;20457;-63
2022/05/12 01:06:08;;;;;;;3.72;3.25;;;;;;;;;;4964837;28;20033;-63
2022/05/12 01:08:34;;;;;;;3.85;3.35;;;;;;;;;;4950241;28;20030;-63
2022/05/12 01:11:04;;;;;;;4.55;3.00;;;;;;;;;;4964178;28;20057;-63
2022/05/12 01:13:31;;;;;;;7.30;3.85;;;;;;;;;;4965107;28;20453;-62
2022/05/12 01:15:59;;;;;;;4.88;3.05;;;;;;;;;;4949895;28;20026;-63
2022/05/12 01:18:26;;;;;;;6.45;3.53;;;;;;;;;;4949615;28;20514;-63
2022/05/12 01:20:52;;;;;;;5.22;3.72;;;;;;;;;;4949521;28;20471;-62
2022/05/12 01:23:32;;;;;;;6.00;3.38;;;;;;;;;;4949623;28;20433;-63
2022/05/12 01:26:00;;;;;;;4.40;3.30;;;;;;;;;;4950227;28;20368;-63
2022/05/12 01:28:26;;;;;;;4.03;3.10;;;;;;;;;;4950269;28;20345;-63
2022/05/12 01:30:52;;;;;;;4.40;3.22;;;;;;;;;;4949737;28;20345;-64
2022/05/12 01:33:18;;;;;;;5.22;3.63;;;;;;;;;;4949728;28;20030;-63
2022/05/12 01:35:43;;;;;;;5.07;3.63;;;;;;;;;;4949928;28;20290;-62
2022/05/12 01:38:08;;;;;;;3.88;3.15;;;;;;;;;;4951062;28;20433;-64
2022/05/12 01:40:34;;;;;;;4.78;3.50;;;;;;;;;;4950267;28;20137;-64
2022/05/12 01:42:59;;;;;;;4.40;3.42;;;;;;;;;;4951550;28;20030;-62
2022/05/12 01:45:24;;;;;;;5.05;3.33;;;;;;;;;;4950414;28;20429;-63
2022/05/12 01:47:50;;;;;;;4.53;3.55;;;;;;;;;;4950313;28;20420;-63
2022/05/12 01:50:17;;;;;;;5.57;3.67;;;;;;;;;;4949417;28;20495;-62
2022/05/12 01:52:44;;;;;;;6.40;3.58;;;;;;;;;;4949534;28;20452;-63
2022/05/12 01:55:14;;;;;;;6.95;3.35;;;;;;;;;;4950753;28;20421;-63
2022/05/12 01:57:43;;;;;;;6.10;3.35;;;;;;;;;;4950738;28;20424;-64
2022/05/12 02:00:13;;;;;;;4.22;3.42;;;;;;;;;;4950887;28;20487;-66
2022/05/12 02:02:39;;;;;;;4.63;3.42;;;;;;;;;;4949514;28;20368;-63
2022/05/12 02:05:09;;;;;;;4.40;3.38;;;;;;;;;;4949129;28;20397;-63
2022/05/12 02:07:36;;;;;;;6.65;3.40;;;;;;;;;;4951636;28;20420;-63
2022/05/12 02:10:01;;;;;;;3.65;2.90;;;;;;;;;;4949364;28;20451;-63
2022/05/12 02:12:26;;;;;;;5.97;3.47;;;;;;;;;;4949668;28;20412;-64
2022/05/12 02:14:52;;;;;;;5.70;3.40;;;;;;;;;;4949206;28;20532;-63
2022/05/12 02:17:17;;;;;;;6.38;3.97;;;;;;;;;;4949647;28;20421;-64
2022/05/12 02:19:42;;;;;;;4.07;3.45;;;;;;;;;;4951263;28;20436;-64
2022/05/12 02:22:10;;;;;;;5.60;3.65;;;;;;;;;;4952737;28;20455;-63
2022/05/12 02:24:35;;;;;;;4.18;2.92;;;;;;;;;;4952508;28;20380;-63
2022/05/12 02:27:00;;;;;;;6.13;4.07;;;;;;;;;;4953384;28;20053;-62
2022/05/12 02:29:26;;;;;;;4.75;3.30;;;;;;;;;;4952215;28;20508;-63
2022/05/12 02:31:51;;;;;;;5.18;3.50;;;;;;;;;;4952659;28;20428;-64
2022/05/12 02:34:17;;;;;;;3.92;3.10;;;;;;;;;;4952352;28;20535;-64
2022/05/12 02:36:59;;;;;;;5.18;2.92;;;;;;;;;;4953164;28;20432;-63
2022/05/12 02:39:25;;;;;;;5.97;4.25;;;;;;;;;;4951929;28;20116;-62
2022/05/12 02:41:51;;;;;;;5.45;3.50;;;;;;;;;;4952378;28;20070;-63
2022/05/12 02:44:16;;;;;;;5.45;4.20;;;;;;;;;;4951451;28;20125;-64
2022/05/12 02:46:41;;;;;;;5.53;3.75;;;;;;;;;;4952541;28;20437;-66
2022/05/12 02:49:09;;;;;;;5.25;3.58;;;;;;;;;;4952011;28;20413;-64
2022/05/12 02:51:34;;;;;;;4.55;3.70;;;;;;;;;;4952216;28;20440;-63
2022/05/12 02:53:59;;;;;;;4.13;3.40;;;;;;;;;;4951768;28;20491;-63
2022/05/12 02:56:26;;;;;;;6.20;3.67;;;;;;;;;;4952214;28;20411;-65
2022/05/12 02:58:51;;;;;;;5.18;3.88;;;;;;;;;;4953613;28;20389;-64
2022/05/12 03:01:16;;;;;;;5.18;3.83;;;;;;;;;;4951493;28;20523;-64
2022/05/12 03:03:41;;;;;;;5.40;3.80;;;;;;;;;;4951946;28;20336;-64
2022/05/12 03:06:07;;;;;;;5.80;4.43;;;;;;;;;;4951680;28;20523;-63
2022/05/12 03:08:32;;;;;;;6.22;3.67;;;;;;;;;;4952832;28;20464;-64
2022/05/12 03:10:58;;;;;;;4.93;3.58;;;;;;;;;;4951619;28;20425;-63
2022/05/12 03:13:23;;;;;;;4.80;3.53;;;;;;;;;;4951662;28;20424;-63
2022/05/12 03:15:48;;;;;;;5.88;3.58;;;;;;;;;;4951481;28;20348;-64
2022/05/12 03:18:13;;;;;;;6.03;3.65;;;;;;;;;;4951556;28;20441;-63
2022/05/12 03:20:39;;;;;;;5.55;3.65;;;;;;;;;;4952948;28;20398;-63
2022/05/12 03:23:04;;;;;;;5.18;3.72;;;;;;;;;;4952932;28;20348;-63
2022/05/12 03:25:30;;;;;;;4.03;3.58;;;;;;;;;;4951706;28;20369;-64
2022/05/12 03:27:56;;;;;;;6.55;3.75;;;;;;;;;;4952169;28;20461;-63
2022/05/12 03:30:23;;;;;;;5.15;3.88;;;;;;;;;;4951284;28;20444;-63
2022/05/12 03:32:49;;;;;;;10.65;3.47;;;;;;;;;;4951654;28;20329;-64
2022/05/12 03:35:15;;;;;;;4.88;3.80;;;;;;;;;;4951516;28;20025;-64
2022/05/12 03:37:40;;;;;;;4.60;3.50;;;;;;;;;;4952346;28;20452;-64
2022/05/12 03:40:08;;;;;;;5.00;3.40;;;;;;;;;;4951213;28;20373;-64
2022/05/12 03:42:33;;;;;;;7.28;3.50;;;;;;;;;;4966058;28;20423;-63
2022/05/12 03:44:59;;;;;;;4.15;3.22;;;;;;;;;;4951148;28;20407;-64
2022/05/12 03:47:27;;;;;;;4.80;3.80;;;;;;;;;;4951333;28;20306;-63
2022/05/12 03:49:55;;;;;;;5.05;3.63;;;;;;;;;;4951103;28;20425;-62
2022/05/12 03:52:21;;;;;;;4.75;3.58;;;;;;;;;;4952339;28;20441;-63
2022/05/12 03:54:46;;;;;;;7.15;3.65;;;;;;;;;;4951146;28;20579;-63
2022/05/12 03:57:13;;;;;;;4.80;3.33;;;;;;;;;;4951861;28;20060;-63
2022/05/12 03:59:39;;;;;;;5.00;3.53;;;;;;;;;;4950686;28;20498;-62
2022/05/12 04:02:06;;;;;;;4.40;3.42;;;;;;;;;;4950854;28;20515;-62
2022/05/12 04:04:32;;;;;;;5.07;3.70;;;;;;;;;;4950843;28;20479;-63
2022/05/12 04:06:58;;;;;;;4.95;3.25;;;;;;;;;;4950043;28;20033;-64
2022/05/12 04:09:23;;;;;;;6.97;3.65;;;;;;;;;;4950755;28;20057;-64
2022/05/12 04:11:48;;;;;;;5.82;3.60;;;;;;;;;;4951206;28;20437;-63
2022/05/12 04:14:14;;;;;;;4.65;3.42;;;;;;;;;;4951675;28;20377;-63
2022/05/12 04:16:39;;;;;;;5.65;3.65;;;;;;;;;;4950596;28;20029;-64
2022/05/12 04:19:05;;;;;;;4.82;3.53;;;;;;;;;;4950416;28;20540;-63
2022/05/12 04:21:34;;;;;;;5.18;3.78;;;;;;;;;;4950807;28;20352;-63
2022/05/12 04:24:00;;;;;;;4.43;3.40;;;;;;;;;;4950740;28;20307;-63
2022/05/12 04:26:25;;;;;;;7.47;3.78;;;;;;;;;;4951077;28;20348;-64
2022/05/12 04:28:51;;;;;;;4.60;3.35;;;;;;;;;;4950373;28;20464;-63
2022/05/12 04:31:16;;;;;;;4.65;3.50;;;;;;;;;;4950247;28;20425;-63
2022/05/12 04:36:25;;;;;;;5.50;3.55;;;;;;;;;;4951030;28;20431;-63
2022/05/12 04:38:50;;;;;;;5.55;3.40;;;;;;;;;;4948663;28;20109;-63
2022/05/12 04:41:16;;;;;;;5.13;3.22;;;;;;;;;;4951099;28;20334;-63
2022/05/12 04:43:41;;;;;;;4.90;3.60;;;;;;;;;;4950406;28;20427;-64
2022/05/12 04:46:07;;;;;;;6.28;3.28;;;;;;;;;;4949919;28;20057;-63
2022/05/12 04:48:32;;;;;;;7.05;4.20;;;;;;;;;;4950457;28;20500;-64
2022/05/12 04:50:59;;;;;;;5.30;3.45;;;;;;;;;;4950562;28;20076;-64
2022/05/12 04:53:25;;;;;;;6.38;3.38;;;;;;;;;;4950313;28;20030;-64
2022/05/12 04:55:50;;;;;;;4.15;3.20;;;;;;;;;;4949997;28;20423;-64
2022/05/12 04:58:16;;;;;;;4.95;3.28;;;;;;;;;;4950170;28;20030;-63
2022/05/12 05:00:43;;;;;;;5.82;3.95;;;;;;;;;;4949600;28;20053;-63
2022/05/12 05:03:10;;;;;;;5.47;3.45;;;;;;;;;;4950598;28;20433;-63
2022/05/12 05:05:35;;;;;;;4.65;3.13;;;;;;;;;;4949534;28;20417;-63
2022/05/12 05:08:01;;;;;;;5.70;3.55;;;;;;;;;;4949957;28;20461;-63
2022/05/12 05:10:26;;;;;;;5.75;3.50;;;;;;;;;;4949696;28;20332;-63
2022/05/12 05:12:53;;;;;;;5.18;3.13;;;;;;;;;;4950432;28;20416;-64
2022/05/12 05:15:19;;;;;;;4.15;3.33;;;;;;;;;;4950008;28;20025;-64
2022/05/12 05:17:45;;;;;;;5.07;3.20;;;;;;;;;;4948935;28;20445;-64
2022/05/12 05:20:16;;;;;;;4.85;3.10;;;;;;;;;;4949928;28;20408;-64
2022/05/12 05:22:42;;;;;;;5.22;3.30;;;;;;;;;;4950088;28;20512;-62
2022/05/12 05:25:08;;;;;;;5.68;3.15;;;;;;;;;;4950223;28;20437;-63
2022/05/12 05:27:34;;;;;;;3.47;2.90;;;;;;;;;;4949786;28;20424;-63
2022/05/12 05:29:59;;;;;;;3.65;2.90;;;;;;;;;;4949493;28;20037;-64
2022/05/12 05:32:27;;;;;;;4.05;3.10;;;;;;;;;;4951239;28;20425;-63
2022/05/12 05:34:52;;;;;;;5.93;3.10;;;;;;;;;;4949586;28;20349;-64
2022/05/12 05:37:18;;;;;;;4.35;3.00;;;;;;;;;;4931820;28;20060;-64
2022/05/12 05:39:43;;;;;;;4.40;3.20;;;;;;;;;;4949947;28;20333;-64
2022/05/12 05:42:12;;;;;;;7.80;3.60;;;;;;;;;;4949986;28;20337;-63
2022/05/12 05:44:38;;;;;;;6.72;3.33;;;;;;;;;;4949527;28;20438;-63
2022/05/12 05:47:04;;;;;;;5.38;3.20;;;;;;;;;;4950366;28;20452;-63
2022/05/12 05:49:30;;;;;;;4.82;3.05;;;;;;;;;;4950955;28;20500;-63
2022/05/12 05:54:40;;;;;;;5.70;2.92;;;;;;;;;;4953329;28;20539;-64
2022/05/12 05:57:05;;;;;;;4.95;2.90;;;;;;;;;;4954208;28;20412;-65
2022/05/12 05:59:31;;;;;;;6.30;2.75;;;;;;;;;;4952826;28;20053;-64
2022/05/12 06:01:57;;;;;;;4.15;2.88;;;;;;;;;;4952933;28;20353;-63
2022/05/12 06:04:22;;;;;;;4.05;2.85;;;;;;;;;;4953332;28;20348;-63
2022/05/12 06:06:48;;;;;;;6.90;3.42;;;;;;;;;;4953860;28;20314;-65
2022/05/12 06:09:13;;;;;;;3.70;2.85;;;;;;;;;;4953400;28;20476;-63
2022/05/12 06:11:42;;;;;;;3.63;2.92;;;;;;;;;;4953085;28;20429;-63
2022/05/12 06:14:08;;;;;;;3.47;2.67;;;;;;;;;;4952823;28;20507;-63
2022/05/12 06:16:33;;;;;;;5.20;2.60;;;;;;;;;;4952804;28;20457;-63
2022/05/12 06:18:59;;;;;;;4.60;2.70;;;;;;;;;;4953062;28;20460;-63
2022/05/12 06:21:24;;;;;;;3.55;2.65;;;;;;;;;;4952838;28;20587;-63
2022/05/12 06:23:49;;;;;;;3.95;2.92;;;;;;;;;;4952601;28;20596;-63
2022/05/12 06:26:15;;;;;;;5.78;3.03;;;;;;;;;;4952799;28;20436;-63
2022/05/12 06:28:45;;;;;;;3.03;2.60;;;;;;;;;;4952814;28;20436;-63
2022/05/12 06:31:11;;;;;;;5.03;3.00;;;;;;;;;;4952756;28;20569;-63
2022/05/12 06:33:36;;;;;;;5.40;2.67;;;;;;;;;;4953450;28;20464;-63
2022/05/12 06:36:05;;;;;;;4.85;2.85;;;;;;;;;;4952492;28;20345;-63
2022/05/12 06:38:32;;;;;;;3.60;2.67;;;;;;;;;;4952772;28;20362;-63
2022/05/12 06:40:57;;;;;;;4.40;2.88;;;;;;;;;;4952049;28;20048;-63
2022/05/12 06:43:23;;;;;;;3.03;2.50;;;;;;;;;;4953182;28;20417;-63
2022/05/12 06:45:49;;;;;;;4.32;3.08;;;;;;;;;;4952973;28;20376;-64
2022/05/12 06:48:15;;;;;;;4.93;3.03;;;;;;;;;;4952411;28;20088;-63
2022/05/12 06:50:40;;;;;;;3.50;2.83;;;;;;;;;;4950757;28;20515;-63
2022/05/12 06:53:05;;;;;;;4.47;2.83;;;;;;;;;;4952444;28;20349;-63
2022/05/12 06:55:31;;;;;;;3.75;2.47;;;;;;;;;;4951733;28;20436;-63
2022/05/12 06:57:56;;;;;;;2.88;2.40;;;;;;;;;;4952505;28;20451;-63
2022/05/12 07:00:22;;;;;;;3.58;2.67;;;;;;;;;;4951888;28;20337;-63
2022/05/12 07:02:47;;;;;;;3.97;2.75;;;;;;;;;;4952151;28;20437;-63
2022/05/12 07:05:15;;;;;;;3.30;2.67;;;;;;;;;;4951490;28;20225;-63
2022/05/12 07:07:42;;;;;;;5.55;2.67;;;;;;;;;;4951960;28;20029;-64
2022/05/12 07:10:08;;;;;;;5.35;2.72;;;;;;;;;;4951934;28;20479;-63
2022/05/12 07:12:33;;;;;;;4.22;2.53;;;;;;;;;;4951796;28;20480;-63
2022/05/12 07:14:59;;;;;;;8.90;3.38;;;;;;;;;;4951799;28;20380;-63
2022/05/12 07:17:25;;;;;;;3.17;2.40;;;;;;;;;;4951740;28;20038;-63
2022/05/12 07:19:52;;;;;;;3.80;2.80;;;;;;;;;;4952233;28;20046;-63
2022/05/12 07:27:45;;;;;;;4.53;3.20;;;;;;;;;;4952179;28;20348;-64
2022/05/12 07:30:11;;;;;;;4.45;2.08;;;;;;;;;;4951761;28;20325;-63
2022/05/12 07:32:37;;;;;;;4.72;2.97;;;;;;;;;;4951730;28;20302;-63
2022/05/12 07:35:07;;;;;;;5.95;2.70;;;;;;;;;;4951416;28;20349;-63
2022/05/12 07:37:32;;;;;;;4.35;2.58;;;;;;;;;;4951645;28;20456;-63
2022/05/12 07:39:58;;;;;;;3.78;2.75;;;;;;;;;;4951369;28;20417;-63
2022/05/12 07:42:23;;;;;;;4.82;2.55;;;;;;;;;;4952290;28;20437;-63
2022/05/12 07:44:48;;;;;;;6.95;2.67;;;;;;;;;;4951637;28;20395;-65
2022/05/12 07:47:14;;;;;;;3.58;2.55;;;;;;;;;;4951257;28;20578;-63
2022/05/12 07:49:40;;;;;;;3.50;2.38;;;;;;;;;;4952124;28;20439;-64
2022/05/12 07:52:07;;;;;;;3.33;2.20;;;;;;;;;;4951001;28;20474;-63
2022/05/12 07:54:33;;;;;;;2.60;1.92;;;;;;;;;;4951618;28;20305;-63
2022/05/12 07:57:00;;;;;;;5.88;2.50;;;;;;;;;;4951662;28;20583;-63
2022/05/12 07:59:27;;;;;;;3.47;2.42;;;;;;;;;;4951062;28;20029;-63
2022/05/12 08:01:54;;;;;;;5.95;2.53;;;;;;;;;;4950849;28;20339;-63
2022/05/12 08:04:20;;;;;;;3.00;2.70;;;;;;;;;;4951757;28;20413;-63
2022/05/12 08:06:45;;;;;;;4.22;2.60;;;;;;;;;;4965544;28;20332;-64
2022/05/12 08:09:11;;;;;;;3.03;2.35;;;;;;;;;;4950671;28;20386;-63
2022/05/12 08:11:36;;;;;;;4.65;2.33;;;;;;;;;;4952103;28;20432;-64
2022/05/12 08:14:02;;;;;;;4.15;2.78;;;;;;;;;;4950827;28;20352;-64
2022/05/12 08:16:27;;;;;;;4.65;2.55;;;;;;;;;;4950237;28;20521;-63
2022/05/12 08:18:52;;;;;;;5.13;2.45;;;;;;;;;;4950402;28;20464;-64
2022/05/12 08:21:19;;;;;;;4.43;2.53;;;;;;;;;;4950786;28;20436;-63
2022/05/12 08:23:44;;;;;;;5.20;2.15;;;;;;;;;;4951032;28;20507;-63
2022/05/12 08:26:10;;;;;;;3.00;2.03;;;;;;;;;;4951722;28;20406;-64
2022/05/12 08:28:37;;;;;;;2.63;1.83;;;;;;;;;;4950660;28;20052;-62
2022/05/12 08:31:03;;;;;;;2.92;2.20;;;;;;;;;;4950378;28;20409;-63
2022/05/12 08:33:28;;;;;;;4.25;2.20;;;;;;;;;;4950493;28;20399;-63
2022/05/12 08:35:53;;;;;;;3.10;2.10;;;;;;;;;;4951366;28;20386;-63
2022/05/12 08:38:19;;;;;;;3.60;2.03;;;;;;;;;;4951811;28;20104;-63
2022/05/12 08:41:03;;;;;;;2.28;2.05;;;;;;;;;;4949856;28;20487;-63
2022/05/12 08:43:35;;;;;;;8.98;2.15;;;;;;;;;;4950235;28;20429;-63
2022/05/12 08:46:08;;;;;;;7.95;2.05;;;;;;;;;;4964685;28;20470;-64
2022/05/12 08:48:38;;;;;;;4.07;2.10;;;;;;;;;;4950149;28;20428;-63
2022/05/12 08:51:03;;;;;;;3.17;2.03;;;;;;;;;;4965316;28;20397;-63
2022/05/12 08:53:29;;;;;;;2.40;2.00;;;;;;;;;;4964788;28;20421;-62
2022/05/12 08:55:59;;;;;;;3.10;2.17;;;;;;;;;;4964934;28;20432;-63
2022/05/12 08:58:33;;;;;;;3.00;1.98;;;;;;;;;;4950876;28;20437;-63
2022/05/12 09:01:02;;;;;;;3.67;1.92;;;;;;;;;;4950113;28;20325;-63
2022/05/12 09:03:38;;;;;;;5.20;1.73;;;;;;;;;;4950104;28;20026;-64
2022/05/12 09:06:09;;;;;;;3.85;1.90;;;;;;;;;;4950522;28;20345;-63
2022/05/12 09:08:56;;;;;;;3.33;1.90;;;;;;;;;;4965051;28;20466;-64
2022/05/12 09:12:03;;;;;;;2.53;1.52;;;;;;;;;;4950267;28;20527;-62
2022/05/12 09:15:22;;;;;;;4.78;2.13;;;;;;;;;;4939916;28;20644;-63
2022/05/12 09:18:12;;;;;;;2.70;1.80;;;;;;;;;;4908127;28;20448;-62
2022/05/12 09:20:37;;;;;;;2.67;2.03;;;;;;;;;;4949375;28;20069;-64
2022/05/12 09:23:04;;;;;;;3.00;1.83;;;;;;;;;;4950027;28;20056;-63
2022/05/12 09:25:36;;;;;;;5.57;2.05;;;;;;;;;;4949482;28;20436;-64
2022/05/12 09:28:34;;;;;;;2.95;1.90;;;;;;;;;;4967521;28;20420;-64
2022/05/12 09:31:17;;;;;;;2.60;1.77;;;;;;;;;;4954648;28;20495;-63
2022/05/12 09:33:47;;;;;;;2.72;1.83;;;;;;;;;;4954230;28;20354;-63
2022/05/12 09:36:26;;;;;;;5.28;1.55;;;;;;;;;;4954883;28;20308;-62
2022/05/12 09:38:54;;;;;;;;;;;;;;;;;;4954514;28;20302;-63
2022/05/12 09:41:41;;;;;;;4.70;1.58;;;;;;;;;;4953970;28;20324;-62
2022/05/12 09:44:27;;;;;;;3.55;1.90;;;;;;;;;;4953217;28;20468;-63
2022/05/12 09:47:02;;;;;;;4.90;1.80;;;;;;;;;;4954219;28;20524;-63
2022/05/12 09:49:39;;;;;;;3.60;2.25;;;;;;;;;;4955399;28;20137;-63
2022/05/12 09:52:37;;;;;;;3.05;1.80;;;;;;;;;;4953182;28;20049;-63
2022/05/12 09:55:14;;;;;;;5.53;1.77;;;;;;;;;;4937199;28;20336;-63
2022/05/12 09:57:55;;;;;;;3.10;1.70;;;;;;;;;;4953236;28;20382;-63
2022/05/12 10:00:40;;;;;;;2.13;1.60;;;;;;;;;;4953008;28;20456;-64
2022/05/12 10:09:13;;;;;;;2.10;1.50;;;;;;;;;;4953385;28;20329;-63
2022/05/12 10:11:50;;;;;;;3.63;1.80;;;;;;;;;;4952944;28;20548;-63
2022/05/12 10:14:33;;;;;;;4.07;1.70;;;;;;;;;;4953182;28;20397;-64
2022/05/12 10:17:00;;;;;;;5.40;2.15;;;;;;;;;;4967433;28;20402;-63
2022/05/12 10:19:27;;;;;;;3.97;1.50;;;;;;;;;;4952281;28;20404;-63
2022/05/12 10:22:12;;;;;;;1.42;1.20;;;;;;;;;;4968879;28;20026;-63
2022/05/12 10:24:39;;;;;;;3.45;1.80;;;;;;;;;;4967361;28;20340;-63
2022/05/12 10:27:14;;;;;;;2.40;1.60;;;;;;;;;;4952903;28;20361;-64
2022/05/12 10:29:58;;;;;;;7.03;1.75;;;;;;;;;;4967602;28;20065;-63
2022/05/12 10:32:33;;;;;;;9.38;1.90;;;;;;;;;;4967311;28;20448;-63
2022/05/12 10:35:10;;;;;;;2.65;1.52;;;;;;;;;;4952744;28;20452;-63
2022/05/12 10:37:47;;;;;;;3.08;1.75;;;;;;;;;;4968351;28;20321;-63
2022/05/12 10:40:25;;;;;;;2.35;1.42;;;;;;;;;;4952063;28;20433;-63
2022/05/12 10:42:57;;;;;;;2.17;1.33;;;;;;;;;;4967576;28;20552;-63
2022/05/12 10:45:24;;;;;;;3.00;1.75;;;;;;;;;;4952021;28;20380;-63
2022/05/12 10:48:02;;;;;;;4.82;1.65;;;;;;;;;;4952900;28;20048;-63
2022/05/12 10:50:55;;;;;;;1.85;1.52;;;;;;;;;;4951722;28;20452;-63
2022/05/12 10:53:41;;;;;;;2.60;1.85;;;;;;;;;;4952064;28;20440;-63
2022/05/12 10:56:44;;;;;;;5.82;2.08;;;;;;;;;;4952336;28;20318;-63
2022/05/12 10:59:25;;;;;;;3.25;1.60;;;;;;;;;;4952165;28;20356;-63
2022/05/12 11:01:58;;;;;;;2.45;1.48;;;;;;;;;;4952298;28;20429;-63
2022/05/12 11:04:36;;;;;;;4.63;1.63;;;;;;;;;;4967244;28;20049;-63
2022/05/12 11:07:20;;;;;;;1.90;1.20;;;;;;;;;;4966462;28;20425;-63
2022/05/12 11:09:50;;;;;;;2.15;1.75;;;;;;;;;;4966776;28;20340;-63
2022/05/12 11:12:23;;;;;;;3.28;1.38;;;;;;;;;;4966515;28;20326;-63
2022/05/12 11:15:00;;;;;;;2.30;1.50;;;;;;;;;;4966680;28;20345;-65
2022/05/12 11:17:30;;;;;;;5.68;1.75;;;;;;;;;;4966816;28;20349;-64
2022/05/12 11:20:12;;;;;;;5.03;1.90;;;;;;;;;;4950939;28;20523;-64
2022/05/12 11:22:51;;;;;;;2.83;1.63;;;;;;;;;;4953293;28;20100;-64
2022/05/12 11:25:25;;;;;;;2.78;1.35;;;;;;;;;;4952234;28;20368;-64
2022/05/12 11:31:21;;;;;;;3.63;1.25;;;;;;;;;;4952475;28;20361;-65
2022/05/12 11:33:52;;;;;;;3.20;1.20;;;;;;;;;;4966111;28;20419;-64
2022/05/12 11:36:17;;;;;;;6.88;1.60;;;;;;;;;;4951505;28;20481;-64
2022/05/12 11:38:47;;;;;;;3.00;1.30;;;;;;;;;;4951360;28;20417;-63
2022/05/12 11:41:27;;;;;;;2.40;1.20;;;;;;;;;;4952821;28;20333;-65
2022/05/12 11:44:34;;;;;;;3.92;1.33;;;;;;;;;;4951760;28;20380;-64
2022/05/12 11:47:23;;;;;;;2.03;1.10;;;;;;;;;;4951041;28;20344;-63
2022/05/12 11:50:07;;;;;;;1.48;1.00;;;;;;;;;;4966217;28;20489;-64
2022/05/12 11:53:00;;;;;;;3.47;1.33;;;;;;;;;;4945312;28;20041;-64
2022/05/12 11:55:54;;;;;;;3.72;1.50;;;;;;;;;;4950897;28;20535;-65
2022/05/12 11:58:40;;;;;;;4.88;1.00;;;;;;;;;;4951000;28;20325;-63
2022/05/12 12:01:11;;;;;;;1.80;1.30;;;;;;;;;;4951992;28;20321;-63
2022/05/12 12:04:06;;;;;;;3.25;1.35;;;;;;;;;;4952843;28;20356;-63
2022/05/12 12:06:52;;;;;;;7.82;1.52;;;;;;;;;;4950840;28;20438;-64
2022/05/12 12:09:29;;;;;;;2.15;1.08;;;;;;;;;;4950679;28;20105;-63
2022/05/12 12:11:55;;;;;;;2.55;1.20;;;;;;;;;;4951020;28;20372;-63
2022/05/12 12:14:42;;;;;;;2.25;1.27;;;;;;;;;;4951138;28;20360;-63
2022/05/12 12:17:35;;;;;;;4.60;1.20;;;;;;;;;;4950848;28;20034;-64
2022/05/12 12:20:31;;;;;;;1.52;1.20;;;;;;;;;;4930884;28;20358;-64
2022/05/12 12:23:20;;;;;;;1.40;1.15;;;;;;;;;;4931455;28;20338;-63
2022/05/12 12:26:05;;;;;;;1.40;1.10;;;;;;;;;;4931311;28;20465;-63
2022/05/12 12:28:58;;;;;;;2.05;1.10;;;;;;;;;;4930974;28;20485;-64
2022/05/12 12:31:37;;;;;;;1.45;1.20;;;;;;;;;;4930926;28;20026;-63
2022/05/12 12:34:15;;;;;;;1.52;1.20;;;;;;;;;;4930854;28;20395;-63
2022/05/12 12:36:54;;;;;;;3.33;1.15;;;;;;;;;;4930916;28;20548;-63
2022/05/12 12:39:38;;;;;;;5.65;1.48;;;;;;;;;;4931742;28;20022;-63
2022/05/12 12:42:13;;;;;;;2.25;1.40;;;;;;;;;;4930498;28;20466;-63
2022/05/12 12:44:43;;;;;;;2.13;1.10;;;;;;;;;;4913164;28;20397;-64
2022/05/12 12:47:22;;;;;;;2.10;1.10;;;;;;;;;;4913770;28;20339;-64
2022/05/12 12:50:03;;;;;;;;;;;;;;;;;;4931829;28;20382;-63
2022/05/12 12:52:28;;;;;;;3.75;1.50;;;;;;;;;;4930517;28;20317;-63
2022/05/12 12:57:44;;;;;;;2.97;1.25;;;;;;;;;;4932057;28;20500;-63
2022/05/12 13:00:16;;;;;;;1.13;1.02;;;;;;;;;;4931138;28;20502;-64
2022/05/12 13:02:44;;;;;;;3.97;1.17;;;;;;;;;;4912596;28;20323;-63
2022/05/12 13:05:21;;;;;;;1.67;1.20;;;;;;;;;;4912819;28;20057;-64
2022/05/12 13:08:08;;;;;;;1.85;1.40;;;;;;;;;;4930260;28;20649;-63
2022/05/12 13:10:45;;;;;;;2.42;1.52;;;;;;;;;;4913488;28;20438;-62
2022/05/12 13:13:11;;;;;;;1.30;1.20;;;;;;;;;;4930288;28;20449;-64
2022/05/12 13:15:39;;;;;;;4.28;1.42;;;;;;;;;;4930265;28;20450;-63
2022/05/12 13:18:06;;;;;;;2.10;1.10;;;;;;;;;;4916764;28;20412;-63
2022/05/12 13:20:39;;;;;;;2.80;1.20;;;;;;;;;;4950422;28;20429;-63
2022/05/12 13:23:29;;;;;;;2.65;1.23;;;;;;;;;;4950411;28;20360;-63
2022/05/12 13:25:55;;;;;;;1.92;1.40;;;;;;;;;;4949774;28;20314;-62
2022/05/12 13:28:29;;;;;;;1.70;1.08;;;;;;;;;;4950467;28;20030;-62
2022/05/12 13:31:16;;;;;;;4.78;1.25;;;;;;;;;;4964997;28;20460;-64
2022/05/12 13:34:14;;;;;;;5.47;1.35;;;;;;;;;;4949456;28;20030;-63
2022/05/12 13:36:42;;;;;;;1.75;1.23;;;;;;;;;;4927018;28;20085;-63
2022/05/12 13:39:09;;;;;;;5.00;1.40;;;;;;;;;;4950757;28;20088;-63
2022/05/12 13:41:38;;;;;;;3.50;2.03;;;;;;;;;;4964613;28;20353;-63
2022/05/12 13:44:18;;;;;;;3.13;1.48;;;;;;;;;;4949325;28;20344;-63
2022/05/12 13:46:49;;;;;;;1.77;1.30;;;;;;;;;;4932700;28;20326;-63
2022/05/12 13:49:15;;;;;;;3.65;1.42;;;;;;;;;;4947949;28;20340;-63
2022/05/12 13:51:52;;;;;;;1.38;1.20;;;;;;;;;;4949211;28;20328;-63
2022/05/12 13:54:26;;;;;;;2.08;1.40;;;;;;;;;;4949350;28;20568;-64
2022/05/12 13:56:53;;;;;;;2.38;1.42;;;;;;;;;;4949612;28;20479;-64
2022/05/12 13:59:29;;;;;;;1.35;1.10;;;;;;;;;;4932065;28;20451;-63
2022/05/12 14:02:19;;;;;;;2.95;1.40;;;;;;;;;;4949947;28;20360;-63
2022/05/12 14:04:44;;;;;;;2.63;1.33;;;;;;;;;;4929525;28;20560;-64
2022/05/12 14:07:10;;;;;;;1.88;1.45;;;;;;;;;;4948099;28;20464;-62
2022/05/12 14:09:51;;;;;;;1.55;1.10;;;;;;;;;;4949848;28;20522;-63
2022/05/12 14:12:23;;;;;;;1.80;1.23;;;;;;;;;;4949721;28;20476;-64
2022/05/12 14:20:30;;;;;;;1.48;0.93;;;;;;;;;;4966078;28;20118;-64
2022/05/12 14:22:55;;;;;;;1.60;1.42;;;;;;;;;;4952964;28;20048;-65
2022/05/12 14:25:24;;;;;;;2.58;1.08;;;;;;;;;;4952405;28;20026;-63
2022/05/12 14:27:49;;;;;;;1.45;1.10;;;;;;;;;;4952696;28;20461;-62
2022/05/12 14:30:14;;;;;;;2.05;1.13;;;;;;;;;;4950936;28;20641;-63
2022/05/12 14:32:42;;;;;;;2.15;1.23;;;;;;;;;;4952487;28;20441;-64
2022/05/12 14:35:09;;;;;;;1.92;1.27;;;;;;;;;;4935188;28;20385;-63
2022/05/12 14:37:35;;;;;;;2.03;1.38;;;;;;;;;;4953196;28;20314;-64
2022/05/12 14:40:01;;;;;;;3.65;1.75;;;;;;;;;;4952284;28;20475;-63
2022/05/12 14:42:27;;;;;;;2.95;1.10;;;;;;;;;;4953985;28;20410;-62
2022/05/12 14:44:52;;;;;;;3.50;1.42;;;;;;;;;;4952015;28;20472;-64
2022/05/12 14:47:24;;;;;;;1.80;1.13;;;;;;;;;;4951900;28;20528;-63
2022/05/12 14:49:50;;;;;;;3.45;1.63;;;;;;;;;;4934073;28;20386;-63
2022/05/12 14:52:19;;;;;;;1.60;1.15;;;;;;;;;;4952294;28;20097;-63
2022/05/12 14:54:46;;;;;;;3.13;1.27;;;;;;;;;;4952349;28;20373;-63
2022/05/12 14:57:12;;;;;;;1.85;1.17;;;;;;;;;;4951872;28;20449;-63
2022/05/12 14:59:37;;;;;;;1.67;1.13;;;;;;;;;;4952070;28;20343;-64
2022/05/12 15:02:04;;;;;;;3.20;0.98;;;;;;;;;;4952321;28;20346;-64
2022/05/12 15:04:31;;;;;;;1.73;1.20;;;;;;;;;;4934463;28;20093;-64
2022/05/12 15:06:57;;;;;;;1.83;1.30;;;;;;;;;;4952409;28;20440;-63
2022/05/12 15:09:23;;;;;;;4.63;1.00;;;;;;;;;;4951456;28;20350;-63
2022/05/12 15:11:48;;;;;;;4.72;1.10;;;;;;;;;;4952443;28;20052;-64
2022/05/12 15:14:14;;;;;;;1.13;1.02;;;;;;;;;;4952247;28;20425;-63
2022/05/12 15:16:39;;;;;;;1.25;1.05;;;;;;;;;;4951442;28;20052;-63
2022/05/12 15:19:05;;;;;;;1.95;1.20;;;;;;;;;;4952336;28;20606;-63
2022/05/12 15:21:30;;;;;;;1.60;1.02;;;;;;;;;;4951712;28;20349;-63
2022/05/12 15:23:55;;;;;;;1.10;0.98;;;;;;;;;;4951596;28;20416;-63
2022/05/12 15:26:23;;;;;;;1.40;0.95;;;;;;;;;;4952705;28;20455;-63
2022/05/12 15:28:48;;;;;;;2.55;1.33;;;;;;;;;;4951711;28;20114;-63